Bosporus — V2QY — position and weather

sailwx.info

Track history (hours):
 
Tides and Currents Weather Stations Pressure Air Temp Water Temp Dewpoint Dewpoint Depression Visibility Wind Speed Wind Dir Waves Ship Positions

Bosporus

Last reported at 2014-Sep-17 21:22 UTC. Time now 2014-Sep-19 05:49 UTC.
Position N 42°20' E 010°43'.

Length 100 m; draft 4.7 m.

Type: Cargo ship. MMSI: 304010802.

Date/timePositionNaut miles runAvg speedWind from/ knotsBaromVisibWave heightAir tempDewpointWater temp
2014-Sep-17 21:22N 42°20' E 010°43'3010.7
2014-Sep-17 18:33N 42°50' E 010°34'10 0.4
2014-Sep-16 16:25N 42°57' E 010°24'1011.2
2014-Sep-16 15:32N 42°56' E 010°11'1110.6
2014-Sep-16 14:28N 42°55' E 009°56'11910.5
2014-Sep-16 03:08N 42°59' E 007°14'611.0
2014-Sep-16 02:33N 42°59' E 007°05'1110.5
2014-Sep-16 01:33N 42°58' E 006°50'1010.2
2014-Sep-16 00:33N 42°58' E 006°36'10 9.8
2014-Sep-15 23:32N 42°57' E 006°23'10 9.8
2014-Sep-15 22:33N 42°57' E 006°10'1010.2
2014-Sep-15 21:33N 42°58' E 005°56'1010.4
2014-Sep-15 20:33N 43°01' E 005°43'10 9.9
2014-Sep-15 19:33N 43°05' E 005°30'15 9.9
2014-Sep-15 18:03N 43°10' E 005°11'5 9.6
2014-Sep-15 17:33N 43°11' E 005°04'8 8.6
2014-Sep-15 16:33N 43°18' E 004°58'8 8.0
2014-Sep-15 15:34N 43°26' E 004°54'0 0.1
2014-Sep-15 14:31N 43°26' E 004°53'0 0.0
2014-Sep-15 13:31N 43°26' E 004°53'0 0.0
2014-Sep-15 12:31N 43°26' E 004°53'0 0.0
2014-Sep-15 11:28N 43°26' E 004°53'0 0.0
2014-Sep-15 10:31N 43°26' E 004°53'0 0.0
2014-Sep-15 09:31N 43°26' E 004°53'0 0.0
2014-Sep-15 08:31N 43°26' E 004°53'0 0.0
2014-Sep-15 07:31N 43°26' E 004°53'0 0.0
2014-Sep-15 06:31N 43°26' E 004°53'0 0.0
2014-Sep-15 05:31N 43°26' E 004°53'0 0.0
2014-Sep-15 04:31N 43°26' E 004°53'0 0.0
2014-Sep-15 03:31N 43°26' E 004°53'0 0.0
2014-Sep-15 02:31N 43°26' E 004°53'0 0.0
2014-Sep-15 01:31N 43°26' E 004°53'0 0.0
2014-Sep-15 00:31N 43°26' E 004°53'0 0.0
2014-Sep-14 23:31N 43°26' E 004°53'0 0.0
2014-Sep-14 22:31N 43°26' E 004°53'0 0.0
2014-Sep-14 21:31N 43°26' E 004°53'0 0.0
2014-Sep-14 20:31N 43°26' E 004°53'2 2.2
2014-Sep-14 19:33N 43°24' E 004°55'1 0.8
2014-Sep-14 18:33N 43°24' E 004°57'0 0.0
2014-Sep-14 17:33N 43°24' E 004°57'0 0.0
2014-Sep-14 16:33N 43°24' E 004°57'0 0.0
2014-Sep-14 15:33N 43°24' E 004°57'0 0.0
2014-Sep-14 14:33N 43°24' E 004°57'0 0.0
2014-Sep-14 13:33N 43°24' E 004°57'0 0.0
2014-Sep-14 12:33N 43°24' E 004°57'0 0.0
2014-Sep-14 11:33N 43°24' E 004°57'0 0.0
2014-Sep-14 10:33N 43°24' E 004°57'0 0.1
2014-Sep-14 09:33N 43°24' E 004°57'0 0.0
2014-Sep-14 08:33N 43°24' E 004°57'0 0.0
2014-Sep-14 07:33N 43°24' E 004°57'0 0.0
2014-Sep-14 06:33N 43°24' E 004°57'0 0.0
2014-Sep-14 05:33N 43°24' E 004°57'0 0.0
2014-Sep-14 04:33N 43°24' E 004°57'0 0.0
2014-Sep-14 03:33N 43°24' E 004°57'0 0.0
2014-Sep-14 02:33N 43°24' E 004°57'0 0.0
2014-Sep-14 01:33N 43°24' E 004°57'0 0.0
2014-Sep-13 21:33N 43°24' E 004°57'0 0.0
2014-Sep-13 20:33N 43°24' E 004°57'0 0.0
2014-Sep-13 19:33N 43°24' E 004°57'0 0.0
2014-Sep-13 18:33N 43°24' E 004°57'7 7.4
2014-Sep-13 17:33N 43°17' E 005°00'10 9.8
2014-Sep-13 16:33N 43°08' E 004°58'1111.3
2014-Sep-13 15:34N 42°60' E 004°47'1611.3
2014-Sep-13 14:10N 42°48' E 004°32'810.9
2014-Sep-13 13:24N 42°42' E 004°24'1010.7
2014-Sep-13 12:29N 42°35' E 004°15'1010.6
2014-Sep-13 11:32N 42°28' E 004°05'1010.4
2014-Sep-13 10:33N 42°21' E 003°56'1110.3
2014-Sep-13 09:32N 42°13' E 003°46'1210.2
2014-Sep-13 08:22N 42°05' E 003°35'910.2
2014-Sep-13 07:31N 41°58' E 003°26'1010.3
2014-Sep-13 06:30N 41°51' E 003°17'1111.1
2014-Sep-13 05:29N 41°44' E 003°05'7711.0
2014-Sep-12 22:29N 40°60' E 001°40'7810.9
2014-Sep-12 15:21N 40°08' E 000°24'2410.9
2014-Sep-12 13:07N 39°50' E 000°03'17 1.4
2014-Sep-12 01:30N 39°38' W 000°13'41 9.9
2014-Sep-11 21:26N 40°08' E 000°23'910.2
2014-Sep-11 20:34N 40°15' E 000°31'1010.0
2014-Sep-11 19:33N 40°23' E 000°39'1010.0
2014-Sep-11 18:33N 40°30' E 000°47'10 9.7
2014-Sep-11 17:34N 40°38' E 000°56'10 9.6
2014-Sep-11 16:34N 40°44' E 001°05'10 9.9
2014-Sep-11 15:33N 40°49' E 001°17'1010.1
2014-Sep-11 14:33N 40°54' E 001°28'1010.1
2014-Sep-11 13:33N 40°59' E 001°40'10 9.7
2014-Sep-11 12:31N 41°04' E 001°51'11 9.5
2014-Sep-11 11:24N 41°10' E 002°03'9 9.9
2014-Sep-11 10:31N 41°14' E 002°13'2210.1
2014-Sep-11 08:19N 41°28' E 002°37'2710.0
2014-Sep-11 05:34N 41°44' E 003°06'1110.3
2014-Sep-11 04:29N 41°52' E 003°17'910.0
2014-Sep-11 03:33N 41°59' E 003°25'1110.7
2014-Sep-11 02:32N 42°07' E 003°34'1111.1
2014-Sep-11 01:32N 42°16' E 003°44'1111.2
2014-Sep-11 00:33N 42°24' E 003°53'1110.4
2014-Sep-10 23:31N 42°32' E 004°03'1110.9
2014-Sep-10 22:33N 42°40' E 004°12'1010.0
2014-Sep-10 21:33N 42°48' E 004°21'13 9.8
2014-Sep-10 20:16N 42°58' E 004°31'7 9.5
2014-Sep-10 19:33N 43°03' E 004°37'10 9.6
2014-Sep-10 18:34N 43°10' E 004°46'10 9.5
2014-Sep-10 17:34N 43°18' E 004°54'8 7.7
2014-Sep-10 16:33N 43°26' E 004°53'0 0.2
2014-Sep-10 15:32N 43°26' E 004°54'0 0.0
2014-Sep-10 14:32N 43°26' E 004°54'0 0.0
2014-Sep-10 13:32N 43°26' E 004°54'0 0.0
2014-Sep-10 12:32N 43°26' E 004°54'0 0.0
2014-Sep-10 11:32N 43°26' E 004°54'0 0.0
2014-Sep-10 10:32N 43°26' E 004°54'0 0.0
2014-Sep-10 09:32N 43°26' E 004°54'0 0.0
2014-Sep-10 08:32N 43°26' E 004°54'0 0.0
2014-Sep-10 07:32N 43°26' E 004°54'0 0.0
2014-Sep-10 06:32N 43°26' E 004°54'0 0.0
2014-Sep-10 05:32N 43°26' E 004°54'0 0.0
2014-Sep-10 04:32N 43°26' E 004°54'0 0.0
2014-Sep-10 03:32N 43°26' E 004°54'0 0.0
2014-Sep-10 02:32N 43°26' E 004°54'0 0.0
2014-Sep-10 01:32N 43°26' E 004°54'0 0.0
2014-Sep-10 00:32N 43°26' E 004°54'0 0.0
2014-Sep-09 23:32N 43°26' E 004°54'0 0.0
2014-Sep-09 22:32N 43°26' E 004°54'0 0.0
2014-Sep-09 21:32N 43°26' E 004°54'0 0.0
2014-Sep-09 20:32N 43°26' E 004°54'0 0.0
2014-Sep-09 19:29N 43°26' E 004°54'1 0.6
2014-Sep-09 18:33N 43°25' E 004°53'9 9.4
2014-Sep-09 17:33N 43°17' E 005°00'1010.0
2014-Sep-09 16:33N 43°08' E 004°57'1111.3
2014-Sep-09 15:33N 42°59' E 004°46'1111.0
2014-Sep-09 14:33N 42°51' E 004°36'1110.7
2014-Sep-09 13:31N 42°43' E 004°26'1010.4
2014-Sep-09 12:33N 42°36' E 004°16'1110.4
2014-Sep-09 11:32N 42°29' E 004°06'1210.3
2014-Sep-09 10:20N 42°20' E 003°54'1010.6
2014-Sep-09 09:22N 42°12' E 003°45'910.6
2014-Sep-09 08:30N 42°06' E 003°36'1111.9
2014-Sep-09 07:33N 41°58' E 003°26'1211.7
2014-Sep-09 06:31N 41°49' E 003°14'1111.6
2014-Sep-09 05:32N 41°42' E 003°02'6811.3
2014-Sep-08 23:28N 41°03' E 001°47'1010.8
2014-Sep-08 22:32N 40°58' E 001°36'1210.8
2014-Sep-08 21:28N 40°52' E 001°23'1011.2
2014-Sep-08 20:33N 40°46' E 001°12'  
Track history (hours):
 
Tides and Currents Weather Stations Pressure Air Temp Water Temp Dewpoint Dewpoint Depression Visibility Wind Speed Wind Dir Waves Ship Positions

Bosporus

Last reported at 2014-Sep-17 21:22 UTC. Time now 2014-Sep-19 05:49 UTC.
Position N 42°20' E 010°43'.

Length 100 m; draft 4.7 m.

Type: Cargo ship. MMSI: 304010802.

Date/timePositionNaut miles runAvg speedWind from/ knotsBaromVisibWave heightAir tempDewpointWater temp
2014-Sep-17 21:22N 42°20' E 010°43'3010.7
2014-Sep-17 18:33N 42°50' E 010°34'10 0.4
2014-Sep-16 16:25N 42°57' E 010°24'1011.2
2014-Sep-16 15:32N 42°56' E 010°11'1110.6
2014-Sep-16 14:28N 42°55' E 009°56'11910.5
2014-Sep-16 03:08N 42°59' E 007°14'611.0
2014-Sep-16 02:33N 42°59' E 007°05'1110.5
2014-Sep-16 01:33N 42°58' E 006°50'1010.2
2014-Sep-16 00:33N 42°58' E 006°36'10 9.8
2014-Sep-15 23:32N 42°57' E 006°23'10 9.8
2014-Sep-15 22:33N 42°57' E 006°10'1010.2
2014-Sep-15 21:33N 42°58' E 005°56'1010.4
2014-Sep-15 20:33N 43°01' E 005°43'10 9.9
2014-Sep-15 19:33N 43°05' E 005°30'15 9.9
2014-Sep-15 18:03N 43°10' E 005°11'5 9.6
2014-Sep-15 17:33N 43°11' E 005°04'8 8.6
2014-Sep-15 16:33N 43°18' E 004°58'8 8.0
2014-Sep-15 15:34N 43°26' E 004°54'0 0.1
2014-Sep-15 14:31N 43°26' E 004°53'0 0.0
2014-Sep-15 13:31N 43°26' E 004°53'0 0.0
2014-Sep-15 12:31N 43°26' E 004°53'0 0.0
2014-Sep-15 11:28N 43°26' E 004°53'0 0.0
2014-Sep-15 10:31N 43°26' E 004°53'0 0.0
2014-Sep-15 09:31N 43°26' E 004°53'0 0.0
2014-Sep-15 08:31N 43°26' E 004°53'0 0.0
2014-Sep-15 07:31N 43°26' E 004°53'0 0.0
2014-Sep-15 06:31N 43°26' E 004°53'0 0.0
2014-Sep-15 05:31N 43°26' E 004°53'0 0.0
2014-Sep-15 04:31N 43°26' E 004°53'0 0.0
2014-Sep-15 03:31N 43°26' E 004°53'0 0.0
2014-Sep-15 02:31N 43°26' E 004°53'0 0.0
2014-Sep-15 01:31N 43°26' E 004°53'0 0.0
2014-Sep-15 00:31N 43°26' E 004°53'0 0.0
2014-Sep-14 23:31N 43°26' E 004°53'0 0.0
2014-Sep-14 22:31N 43°26' E 004°53'0 0.0
2014-Sep-14 21:31N 43°26' E 004°53'0 0.0
2014-Sep-14 20:31N 43°26' E 004°53'2 2.2
2014-Sep-14 19:33N 43°24' E 004°55'1 0.8
2014-Sep-14 18:33N 43°24' E 004°57'0 0.0
2014-Sep-14 17:33N 43°24' E 004°57'0 0.0
2014-Sep-14 16:33N 43°24' E 004°57'0 0.0
2014-Sep-14 15:33N 43°24' E 004°57'0 0.0
2014-Sep-14 14:33N 43°24' E 004°57'0 0.0
2014-Sep-14 13:33N 43°24' E 004°57'0 0.0
2014-Sep-14 12:33N 43°24' E 004°57'0 0.0
2014-Sep-14 11:33N 43°24' E 004°57'0 0.0
2014-Sep-14 10:33N 43°24' E 004°57'0 0.1
2014-Sep-14 09:33N 43°24' E 004°57'0 0.0
2014-Sep-14 08:33N 43°24' E 004°57'0 0.0
2014-Sep-14 07:33N 43°24' E 004°57'0 0.0
2014-Sep-14 06:33N 43°24' E 004°57'0 0.0
2014-Sep-14 05:33N 43°24' E 004°57'0 0.0
2014-Sep-14 04:33N 43°24' E 004°57'0 0.0
2014-Sep-14 03:33N 43°24' E 004°57'0 0.0
2014-Sep-14 02:33N 43°24' E 004°57'0 0.0
2014-Sep-14 01:33N 43°24' E 004°57'0 0.0
2014-Sep-13 21:33N 43°24' E 004°57'0 0.0
2014-Sep-13 20:33N 43°24' E 004°57'0 0.0
2014-Sep-13 19:33N 43°24' E 004°57'0 0.0
2014-Sep-13 18:33N 43°24' E 004°57'7 7.4
2014-Sep-13 17:33N 43°17' E 005°00'10 9.8
2014-Sep-13 16:33N 43°08' E 004°58'1111.3
2014-Sep-13 15:34N 42°60' E 004°47'1611.3
2014-Sep-13 14:10N 42°48' E 004°32'810.9
2014-Sep-13 13:24N 42°42' E 004°24'1010.7
2014-Sep-13 12:29N 42°35' E 004°15'1010.6
2014-Sep-13 11:32N 42°28' E 004°05'1010.4
2014-Sep-13 10:33N 42°21' E 003°56'1110.3
2014-Sep-13 09:32N 42°13' E 003°46'1210.2
2014-Sep-13 08:22N 42°05' E 003°35'910.2
2014-Sep-13 07:31N 41°58' E 003°26'1010.3
2014-Sep-13 06:30N 41°51' E 003°17'1111.1
2014-Sep-13 05:29N 41°44' E 003°05'7711.0
2014-Sep-12 22:29N 40°60' E 001°40'7810.9
2014-Sep-12 15:21N 40°08' E 000°24'2410.9
2014-Sep-12 13:07N 39°50' E 000°03'17 1.4
2014-Sep-12 01:30N 39°38' W 000°13'41 9.9
2014-Sep-11 21:26N 40°08' E 000°23'910.2
2014-Sep-11 20:34N 40°15' E 000°31'1010.0
2014-Sep-11 19:33N 40°23' E 000°39'1010.0
2014-Sep-11 18:33N 40°30' E 000°47'10 9.7
2014-Sep-11 17:34N 40°38' E 000°56'10 9.6
2014-Sep-11 16:34N 40°44' E 001°05'10 9.9
2014-Sep-11 15:33N 40°49' E 001°17'1010.1
2014-Sep-11 14:33N 40°54' E 001°28'1010.1
2014-Sep-11 13:33N 40°59' E 001°40'10 9.7
2014-Sep-11 12:31N 41°04' E 001°51'11 9.5
2014-Sep-11 11:24N 41°10' E 002°03'9 9.9
2014-Sep-11 10:31N 41°14' E 002°13'2210.1
2014-Sep-11 08:19N 41°28' E 002°37'2710.0
2014-Sep-11 05:34N 41°44' E 003°06'1110.3
2014-Sep-11 04:29N 41°52' E 003°17'910.0
2014-Sep-11 03:33N 41°59' E 003°25'1110.7
2014-Sep-11 02:32N 42°07' E 003°34'1111.1
2014-Sep-11 01:32N 42°16' E 003°44'1111.2
2014-Sep-11 00:33N 42°24' E 003°53'1110.4
2014-Sep-10 23:31N 42°32' E 004°03'1110.9
2014-Sep-10 22:33N 42°40' E 004°12'1010.0
2014-Sep-10 21:33N 42°48' E 004°21'13 9.8
2014-Sep-10 20:16N 42°58' E 004°31'7 9.5
2014-Sep-10 19:33N 43°03' E 004°37'10 9.6
2014-Sep-10 18:34N 43°10' E 004°46'10 9.5
2014-Sep-10 17:34N 43°18' E 004°54'8 7.7
2014-Sep-10 16:33N 43°26' E 004°53'0 0.2
2014-Sep-10 15:32N 43°26' E 004°54'0 0.0
2014-Sep-10 14:32N 43°26' E 004°54'0 0.0
2014-Sep-10 13:32N 43°26' E 004°54'0 0.0
2014-Sep-10 12:32N 43°26' E 004°54'0 0.0
2014-Sep-10 11:32N 43°26' E 004°54'0 0.0
2014-Sep-10 10:32N 43°26' E 004°54'0 0.0
2014-Sep-10 09:32N 43°26' E 004°54'0 0.0
2014-Sep-10 08:32N 43°26' E 004°54'0 0.0
2014-Sep-10 07:32N 43°26' E 004°54'0 0.0
2014-Sep-10 06:32N 43°26' E 004°54'0 0.0
2014-Sep-10 05:32N 43°26' E 004°54'0 0.0
2014-Sep-10 04:32N 43°26' E 004°54'0 0.0
2014-Sep-10 03:32N 43°26' E 004°54'0 0.0
2014-Sep-10 02:32N 43°26' E 004°54'0 0.0
2014-Sep-10 01:32N 43°26' E 004°54'0 0.0
2014-Sep-10 00:32N 43°26' E 004°54'0 0.0
2014-Sep-09 23:32N 43°26' E 004°54'0 0.0
2014-Sep-09 22:32N 43°26' E 004°54'0 0.0
2014-Sep-09 21:32N 43°26' E 004°54'0 0.0
2014-Sep-09 20:32N 43°26' E 004°54'0 0.0
2014-Sep-09 19:29N 43°26' E 004°54'1 0.6
2014-Sep-09 18:33N 43°25' E 004°53'9 9.4
2014-Sep-09 17:33N 43°17' E 005°00'1010.0
2014-Sep-09 16:33N 43°08' E 004°57'1111.3
2014-Sep-09 15:33N 42°59' E 004°46'1111.0
2014-Sep-09 14:33N 42°51' E 004°36'1110.7
2014-Sep-09 13:31N 42°43' E 004°26'1010.4
2014-Sep-09 12:33N 42°36' E 004°16'1110.4
2014-Sep-09 11:32N 42°29' E 004°06'1210.3
2014-Sep-09 10:20N 42°20' E 003°54'1010.6
2014-Sep-09 09:22N 42°12' E 003°45'910.6
2014-Sep-09 08:30N 42°06' E 003°36'1111.9
2014-Sep-09 07:33N 41°58' E 003°26'1211.7
2014-Sep-09 06:31N 41°49' E 003°14'1111.6
2014-Sep-09 05:32N 41°42' E 003°02'6811.3
2014-Sep-08 23:28N 41°03' E 001°47'1010.8
2014-Sep-08 22:32N 40°58' E 001°36'1210.8
2014-Sep-08 21:28N 40°52' E 001°23'1011.2
2014-Sep-08 20:33N 40°46' E 001°12'  

Dump ship's entire track history